Flight Track Log - Related Links

Times and Time Zones

All times are in EDT time to prevent confusion due to time zone crossing. See the AMF1324 flight status page for this flight to view local times or setup timezone preferences in your user account.

Time Position Orientation Groundspeed Altitude Reporting Facility
EDT Latitude Longitude Course Direction KTS MPH feet Rate Location/Type
Fri 06:44:22 AM 42.9333 -78.7500 180° South 161 185 1,500  Level Buffalo TRACON
Fri 06:44:46 AM 42.9167 -78.7500 180° South 169 194 2,000 1,571 Climbing Buffalo TRACON
Fri 06:45:46 AM 42.9000 -78.6833 109° East 211 243 3,700 1,770 Climbing Buffalo TRACON
Fri 06:47:05 AM 42.8978 -78.5889 92° East 198 228 6,100 1,586 Climbing Cleveland Center
Fri 06:48:06 AM 42.8933 -78.5150 95° East 202 232 7,400 1,317 Climbing Cleveland Center
Fri 06:49:08 AM 42.8869 -78.4347 96° East 205 236 8,800 1,317 Climbing Cleveland Center
Fri 06:50:09 AM 42.8794 -78.3517 97° East 211 243 10,100 1,279 Climbing Cleveland Center
Fri 06:51:10 AM 42.8731 -78.2692 96° East 216 249 11,400 1,180 Climbing Cleveland Center
Fri 06:52:11 AM 42.8667 -78.1867 96° East 221 254 12,500 732 Climbing Cleveland Center
Fri 06:53:13 AM 42.8606 -78.0986 95° East 233 268 12,900 244 Climbing Cleveland Center
Fri 06:54:14 AM 42.8517 -78.0033 97° East 252 290 13,000 49 Climbing Cleveland Center
Fri 06:55:15 AM 42.8425 -77.9053 97° East 258 297 13,000  Level Cleveland Center
Fri 06:56:17 AM 42.8369 -77.8086 94° East 257 296 13,000 -49 Level Cleveland Center
Fri 06:57:18 AM 42.8303 -77.7100 95° East 259 298 12,900  Descending Cleveland Center
Fri 06:58:19 AM 42.7986 -77.6244 117° Southeast 250 288 13,000 -98 Climbing Cleveland Center
Fri 06:59:21 AM 42.7681 -77.5367 115° Southeast 253 291 12,700 -439 Descending Cleveland Center
Fri 07:00:22 AM 42.7306 -77.4475 120° Southeast 265 305 12,100 -689 Descending Cleveland Center
Fri 07:01:23 AM 42.6931 -77.3553 119° Southeast 274 315 11,300 -537 Descending Cleveland Center
Fri 07:02:25 AM 42.6475 -77.2464 120° Southeast 277 319 11,000 -146 Descending Cleveland Center
Fri 07:03:26 AM 42.6106 -77.1606 120° Southeast 265 305 11,000  Level Cleveland Center
Fri 07:04:28 AM 42.5736 -77.0786 121° Southeast 257 296 11,000  Level Cleveland Center
Fri 07:05:29 AM 42.5350 -76.9997 124° Southeast 252 290 11,000  Level Cleveland Center
Fri 07:06:30 AM 42.4964 -76.9200 123° Southeast 252 290 11,000  Level Cleveland Center
Fri 07:07:32 AM 42.4556 -76.8419 125° Southeast 253 291 11,000  Level Cleveland Center
Fri 07:08:33 AM 42.4150 -76.7656 126° Southeast 252 290 11,000  Level Cleveland Center
Fri 07:09:35 AM 42.3764 -76.6856 123° Southeast 254 292 11,000 -634 Level Cleveland Center
Fri 07:10:36 AM 42.3358 -76.6003 123° Southeast 262 302 9,700 -1,279 Descending Cleveland Center
Fri 07:11:37 AM 42.2889 -76.4861 119° Southeast 288 331 8,400 -1,328 Descending Cleveland Center
Fri 07:12:47 AM 42.2683 -76.3667 103° East 275 316 6,800 -1,477 Descending New York Center
Fri 07:13:47 AM 42.2692 -76.2603 89° East 275 316 5,200 -1,500 Descending New York Center
Fri 07:14:47 AM 42.2778 -76.1603 83° East 275 316 3,800 -1,000 Descending New York Center
Fri 07:15:47 AM 42.2792 -76.0847 89° East 270 311 3,200 -450 Descending New York Center
Fri 07:16:47 AM 42.2531 -76.0181 118° Southeast 222 255 2,900 -500 Descending New York Center
Fri 07:17:47 AM 42.2264 -75.9572 121° Southeast 200 230 2,200 -700 Descending New York Center

Login

Don't have an account? Register now (free) for customized features, flight alerts, and more!